sensor_id;sensor_type;location;lat;lon;timestamp;P1;durP1;ratioP1;P2;durP2;ratioP2
84834;SDS011;75078;42.636;23.198;2024-02-28T00:00:38;19.55;;;8.68;;
84834;SDS011;75078;42.636;23.198;2024-02-28T00:03:04;7.50;;;4.68;;
84834;SDS011;75078;42.636;23.198;2024-02-28T00:05:29;5.45;;;4.00;;
84834;SDS011;75078;42.636;23.198;2024-02-28T00:07:55;7.43;;;5.25;;
84834;SDS011;75078;42.636;23.198;2024-02-28T00:10:20;14.10;;;7.32;;
84834;SDS011;75078;42.636;23.198;2024-02-28T00:12:45;10.65;;;7.13;;
84834;SDS011;75078;42.636;23.198;2024-02-28T00:15:11;6.90;;;4.43;;
84834;SDS011;75078;42.636;23.198;2024-02-28T00:17:39;8.45;;;3.88;;
84834;SDS011;75078;42.636;23.198;2024-02-28T00:20:06;8.40;;;5.30;;
84834;SDS011;75078;42.636;23.198;2024-02-28T00:22:32;13.90;;;7.07;;
84834;SDS011;75078;42.636;23.198;2024-02-28T00:24:58;14.52;;;9.07;;
84834;SDS011;75078;42.636;23.198;2024-02-28T00:27:25;12.65;;;5.85;;
84834;SDS011;75078;42.636;23.198;2024-02-28T00:29:51;15.73;;;8.35;;
84834;SDS011;75078;42.636;23.198;2024-02-28T00:32:16;25.33;;;11.68;;
84834;SDS011;75078;42.636;23.198;2024-02-28T00:34:41;16.30;;;8.48;;
84834;SDS011;75078;42.636;23.198;2024-02-28T00:37:07;15.93;;;8.30;;
84834;SDS011;75078;42.636;23.198;2024-02-28T00:39:32;20.08;;;9.77;;
84834;SDS011;75078;42.636;23.198;2024-02-28T00:41:57;26.08;;;10.40;;
84834;SDS011;75078;42.636;23.198;2024-02-28T00:44:23;23.42;;;9.93;;
84834;SDS011;75078;42.636;23.198;2024-02-28T00:46:48;16.52;;;8.60;;
84834;SDS011;75078;42.636;23.198;2024-02-28T00:49:13;19.98;;;8.65;;
84834;SDS011;75078;42.636;23.198;2024-02-28T00:51:39;26.92;;;12.05;;
84834;SDS011;75078;42.636;23.198;2024-02-28T00:54:04;27.20;;;10.75;;
84834;SDS011;75078;42.636;23.198;2024-02-28T00:56:30;22.65;;;9.98;;
84834;SDS011;75078;42.636;23.198;2024-02-28T00:58:55;14.20;;;7.68;;
84834;SDS011;75078;42.636;23.198;2024-02-28T01:01:21;7.38;;;5.80;;
84834;SDS011;75078;42.636;23.198;2024-02-28T01:03:46;13.82;;;7.70;;
84834;SDS011;75078;42.636;23.198;2024-02-28T01:06:11;20.08;;;6.68;;
84834;SDS011;75078;42.636;23.198;2024-02-28T01:08:37;10.45;;;4.85;;
84834;SDS011;75078;42.636;23.198;2024-02-28T01:11:02;18.05;;;7.60;;
84834;SDS011;75078;42.636;23.198;2024-02-28T01:13:28;8.07;;;5.82;;
84834;SDS011;75078;42.636;23.198;2024-02-28T01:15:53;5.60;;;3.90;;
84834;SDS011;75078;42.636;23.198;2024-02-28T01:18:19;7.47;;;3.72;;
84834;SDS011;75078;42.636;23.198;2024-02-28T01:20:44;10.70;;;4.38;;
84834;SDS011;75078;42.636;23.198;2024-02-28T01:23:09;20.25;;;7.90;;
84834;SDS011;75078;42.636;23.198;2024-02-28T01:25:35;17.80;;;10.55;;
84834;SDS011;75078;42.636;23.198;2024-02-28T01:28:00;18.02;;;8.63;;
84834;SDS011;75078;42.636;23.198;2024-02-28T01:30:25;20.27;;;9.75;;
84834;SDS011;75078;42.636;23.198;2024-02-28T01:32:51;23.67;;;10.07;;
84834;SDS011;75078;42.636;23.198;2024-02-28T01:35:16;22.52;;;10.00;;
84834;SDS011;75078;42.636;23.198;2024-02-28T01:37:42;11.68;;;7.38;;
84834;SDS011;75078;42.636;23.198;2024-02-28T01:40:07;15.10;;;7.63;;
84834;SDS011;75078;42.636;23.198;2024-02-28T01:42:33;12.70;;;7.38;;
84834;SDS011;75078;42.636;23.198;2024-02-28T01:44:58;13.88;;;6.75;;
84834;SDS011;75078;42.636;23.198;2024-02-28T01:47:24;27.52;;;9.88;;
84834;SDS011;75078;42.636;23.198;2024-02-28T01:49:49;38.83;;;11.40;;
84834;SDS011;75078;42.636;23.198;2024-02-28T01:52:16;19.38;;;9.57;;
84834;SDS011;75078;42.636;23.198;2024-02-28T01:54:42;10.88;;;7.22;;
84834;SDS011;75078;42.636;23.198;2024-02-28T01:57:08;10.75;;;6.45;;
84834;SDS011;75078;42.636;23.198;2024-02-28T01:59:34;21.17;;;9.43;;
84834;SDS011;75078;42.636;23.198;2024-02-28T02:01:59;20.73;;;9.57;;
84834;SDS011;75078;42.636;23.198;2024-02-28T02:04:25;19.38;;;9.98;;
84834;SDS011;75078;42.636;23.198;2024-02-28T02:06:50;22.77;;;10.02;;
84834;SDS011;75078;42.636;23.198;2024-02-28T02:09:19;18.77;;;9.82;;
84834;SDS011;75078;42.636;23.198;2024-02-28T02:11:44;15.07;;;7.95;;
84834;SDS011;75078;42.636;23.198;2024-02-28T02:14:10;23.10;;;10.38;;
84834;SDS011;75078;42.636;23.198;2024-02-28T02:16:35;37.25;;;12.43;;
84834;SDS011;75078;42.636;23.198;2024-02-28T02:19:01;34.03;;;14.70;;
84834;SDS011;75078;42.636;23.198;2024-02-28T02:21:31;54.83;;;17.92;;
84834;SDS011;75078;42.636;23.198;2024-02-28T02:23:59;43.15;;;16.50;;
84834;SDS011;75078;42.636;23.198;2024-02-28T02:26:25;23.48;;;10.73;;
84834;SDS011;75078;42.636;23.198;2024-02-28T02:28:50;38.30;;;16.73;;
84834;SDS011;75078;42.636;23.198;2024-02-28T02:31:15;16.58;;;10.10;;
84834;SDS011;75078;42.636;23.198;2024-02-28T02:33:41;25.05;;;10.93;;
84834;SDS011;75078;42.636;23.198;2024-02-28T02:36:06;35.10;;;13.00;;
84834;SDS011;75078;42.636;23.198;2024-02-28T02:38:32;24.15;;;10.77;;
84834;SDS011;75078;42.636;23.198;2024-02-28T02:40:57;31.95;;;11.85;;
84834;SDS011;75078;42.636;23.198;2024-02-28T02:43:22;38.80;;;13.95;;
84834;SDS011;75078;42.636;23.198;2024-02-28T02:45:48;38.00;;;13.15;;
84834;SDS011;75078;42.636;23.198;2024-02-28T02:48:13;23.17;;;8.50;;
84834;SDS011;75078;42.636;23.198;2024-02-28T02:50:38;12.95;;;6.53;;
84834;SDS011;75078;42.636;23.198;2024-02-28T02:53:04;5.97;;;4.53;;
84834;SDS011;75078;42.636;23.198;2024-02-28T02:55:29;4.90;;;4.28;;
84834;SDS011;75078;42.636;23.198;2024-02-28T02:57:55;6.40;;;4.03;;
84834;SDS011;75078;42.636;23.198;2024-02-28T03:00:21;13.25;;;6.82;;
84834;SDS011;75078;42.636;23.198;2024-02-28T03:02:47;17.75;;;9.45;;
84834;SDS011;75078;42.636;23.198;2024-02-28T03:05:12;11.30;;;7.47;;
84834;SDS011;75078;42.636;23.198;2024-02-28T03:07:37;11.02;;;6.82;;
84834;SDS011;75078;42.636;23.198;2024-02-28T03:10:03;9.73;;;6.07;;
84834;SDS011;75078;42.636;23.198;2024-02-28T03:12:29;9.02;;;6.25;;
84834;SDS011;75078;42.636;23.198;2024-02-28T03:14:54;9.07;;;5.90;;
84834;SDS011;75078;42.636;23.198;2024-02-28T03:17:20;13.88;;;5.97;;
84834;SDS011;75078;42.636;23.198;2024-02-28T03:19:45;6.97;;;5.15;;
84834;SDS011;75078;42.636;23.198;2024-02-28T03:22:11;6.60;;;4.18;;
84834;SDS011;75078;42.636;23.198;2024-02-28T03:24:36;7.63;;;4.22;;
84834;SDS011;75078;42.636;23.198;2024-02-28T03:27:02;21.63;;;16.67;;
84834;SDS011;75078;42.636;23.198;2024-02-28T03:29:27;24.50;;;16.52;;
84834;SDS011;75078;42.636;23.198;2024-02-28T03:31:53;34.55;;;25.60;;
84834;SDS011;75078;42.636;23.198;2024-02-28T03:34:18;43.38;;;22.55;;
84834;SDS011;75078;42.636;23.198;2024-02-28T03:36:44;26.30;;;18.33;;
84834;SDS011;75078;42.636;23.198;2024-02-28T03:39:10;12.25;;;7.30;;
84834;SDS011;75078;42.636;23.198;2024-02-28T03:41:35;16.17;;;11.20;;
84834;SDS011;75078;42.636;23.198;2024-02-28T03:44:00;24.48;;;12.63;;
84834;SDS011;75078;42.636;23.198;2024-02-28T03:46:26;14.77;;;7.97;;
84834;SDS011;75078;42.636;23.198;2024-02-28T03:48:51;11.23;;;6.75;;
84834;SDS011;75078;42.636;23.198;2024-02-28T03:51:16;9.70;;;5.95;;
84834;SDS011;75078;42.636;23.198;2024-02-28T03:53:42;11.55;;;6.20;;
84834;SDS011;75078;42.636;23.198;2024-02-28T03:56:07;10.07;;;6.07;;
84834;SDS011;75078;42.636;23.198;2024-02-28T03:58:32;10.48;;;5.95;;
84834;SDS011;75078;42.636;23.198;2024-02-28T04:00:58;10.15;;;6.10;;
84834;SDS011;75078;42.636;23.198;2024-02-28T04:03:23;18.80;;;7.53;;
84834;SDS011;75078;42.636;23.198;2024-02-28T04:05:48;12.10;;;6.93;;
84834;SDS011;75078;42.636;23.198;2024-02-28T04:08:14;56.38;;;16.65;;
84834;SDS011;75078;42.636;23.198;2024-02-28T04:10:39;42.88;;;17.38;;
84834;SDS011;75078;42.636;23.198;2024-02-28T04:13:04;36.33;;;15.35;;
84834;SDS011;75078;42.636;23.198;2024-02-28T04:15:30;24.15;;;10.88;;
84834;SDS011;75078;42.636;23.198;2024-02-28T04:17:56;22.98;;;10.75;;
84834;SDS011;75078;42.636;23.198;2024-02-28T04:20:21;37.28;;;15.18;;
84834;SDS011;75078;42.636;23.198;2024-02-28T04:22:46;48.92;;;21.42;;
84834;SDS011;75078;42.636;23.198;2024-02-28T04:25:12;62.13;;;22.15;;
84834;SDS011;75078;42.636;23.198;2024-02-28T04:27:37;41.25;;;19.40;;
84834;SDS011;75078;42.636;23.198;2024-02-28T04:30:03;48.92;;;27.95;;
84834;SDS011;75078;42.636;23.198;2024-02-28T04:32:32;20.35;;;12.18;;
84834;SDS011;75078;42.636;23.198;2024-02-28T04:34:57;15.55;;;8.02;;
84834;SDS011;75078;42.636;23.198;2024-02-28T04:37:22;27.20;;;13.52;;
84834;SDS011;75078;42.636;23.198;2024-02-28T04:39:48;37.03;;;18.05;;
84834;SDS011;75078;42.636;23.198;2024-02-28T04:42:14;29.85;;;15.23;;
84834;SDS011;75078;42.636;23.198;2024-02-28T04:44:41;18.13;;;11.77;;
84834;SDS011;75078;42.636;23.198;2024-02-28T04:47:06;38.60;;;17.67;;
84834;SDS011;75078;42.636;23.198;2024-02-28T04:49:31;46.25;;;21.05;;
84834;SDS011;75078;42.636;23.198;2024-02-28T04:51:57;35.03;;;17.48;;
84834;SDS011;75078;42.636;23.198;2024-02-28T04:54:23;50.28;;;26.15;;
84834;SDS011;75078;42.636;23.198;2024-02-28T04:56:49;49.72;;;26.35;;
84834;SDS011;75078;42.636;23.198;2024-02-28T04:59:16;39.28;;;20.63;;
84834;SDS011;75078;42.636;23.198;2024-02-28T05:01:41;25.63;;;14.23;;
84834;SDS011;75078;42.636;23.198;2024-02-28T05:04:08;32.38;;;17.30;;
84834;SDS011;75078;42.636;23.198;2024-02-28T05:06:34;26.35;;;12.32;;
84834;SDS011;75078;42.636;23.198;2024-02-28T05:09:00;13.10;;;9.05;;
84834;SDS011;75078;42.636;23.198;2024-02-28T05:11:25;25.75;;;11.30;;
84834;SDS011;75078;42.636;23.198;2024-02-28T05:13:50;48.70;;;17.55;;
84834;SDS011;75078;42.636;23.198;2024-02-28T05:16:16;44.70;;;15.15;;
84834;SDS011;75078;42.636;23.198;2024-02-28T05:18:43;29.13;;;13.70;;
84834;SDS011;75078;42.636;23.198;2024-02-28T05:21:09;30.70;;;13.80;;
84834;SDS011;75078;42.636;23.198;2024-02-28T05:23:35;42.50;;;24.40;;
84834;SDS011;75078;42.636;23.198;2024-02-28T05:26:01;28.83;;;12.65;;
84834;SDS011;75078;42.636;23.198;2024-02-28T05:28:29;34.17;;;16.98;;
84834;SDS011;75078;42.636;23.198;2024-02-28T05:30:55;34.33;;;15.13;;
84834;SDS011;75078;42.636;23.198;2024-02-28T05:33:21;27.42;;;12.88;;
84834;SDS011;75078;42.636;23.198;2024-02-28T05:35:46;20.08;;;11.32;;
84834;SDS011;75078;42.636;23.198;2024-02-28T05:38:11;28.50;;;12.70;;
84834;SDS011;75078;42.636;23.198;2024-02-28T05:40:36;21.90;;;12.38;;
84834;SDS011;75078;42.636;23.198;2024-02-28T05:43:02;26.10;;;11.52;;
84834;SDS011;75078;42.636;23.198;2024-02-28T05:45:29;17.50;;;9.75;;
84834;SDS011;75078;42.636;23.198;2024-02-28T05:47:54;25.70;;;12.18;;
84834;SDS011;75078;42.636;23.198;2024-02-28T05:50:20;13.45;;;7.82;;
84834;SDS011;75078;42.636;23.198;2024-02-28T05:52:45;15.93;;;8.27;;
84834;SDS011;75078;42.636;23.198;2024-02-28T05:55:11;16.08;;;9.10;;
84834;SDS011;75078;42.636;23.198;2024-02-28T05:57:37;12.20;;;7.32;;
84834;SDS011;75078;42.636;23.198;2024-02-28T06:00:02;36.08;;;17.40;;
84834;SDS011;75078;42.636;23.198;2024-02-28T06:02:34;39.30;;;19.83;;
84834;SDS011;75078;42.636;23.198;2024-02-28T06:05:00;37.53;;;16.33;;
84834;SDS011;75078;42.636;23.198;2024-02-28T06:07:26;32.60;;;15.00;;
84834;SDS011;75078;42.636;23.198;2024-02-28T06:09:51;25.45;;;11.50;;
84834;SDS011;75078;42.636;23.198;2024-02-28T06:12:16;15.77;;;8.30;;
84834;SDS011;75078;42.636;23.198;2024-02-28T06:14:42;12.63;;;7.47;;
84834;SDS011;75078;42.636;23.198;2024-02-28T06:17:07;15.45;;;6.57;;
84834;SDS011;75078;42.636;23.198;2024-02-28T06:19:32;10.80;;;5.18;;
84834;SDS011;75078;42.636;23.198;2024-02-28T06:21:58;12.75;;;8.48;;
84834;SDS011;75078;42.636;23.198;2024-02-28T06:24:23;21.35;;;11.93;;
84834;SDS011;75078;42.636;23.198;2024-02-28T06:26:48;16.25;;;9.15;;
84834;SDS011;75078;42.636;23.198;2024-02-28T06:29:14;27.05;;;12.52;;
84834;SDS011;75078;42.636;23.198;2024-02-28T06:31:40;29.90;;;12.75;;
84834;SDS011;75078;42.636;23.198;2024-02-28T06:34:05;16.17;;;8.15;;
84834;SDS011;75078;42.636;23.198;2024-02-28T06:36:30;9.35;;;5.63;;
84834;SDS011;75078;42.636;23.198;2024-02-28T06:38:56;24.42;;;11.35;;
84834;SDS011;75078;42.636;23.198;2024-02-28T06:41:21;19.55;;;10.00;;
84834;SDS011;75078;42.636;23.198;2024-02-28T06:43:46;26.30;;;13.10;;
84834;SDS011;75078;42.636;23.198;2024-02-28T06:46:12;22.30;;;13.25;;
84834;SDS011;75078;42.636;23.198;2024-02-28T06:48:37;47.70;;;25.88;;
84834;SDS011;75078;42.636;23.198;2024-02-28T06:51:03;17.08;;;9.35;;
84834;SDS011;75078;42.636;23.198;2024-02-28T06:53:28;15.00;;;9.35;;
84834;SDS011;75078;42.636;23.198;2024-02-28T06:55:54;15.77;;;8.57;;
84834;SDS011;75078;42.636;23.198;2024-02-28T06:58:19;13.13;;;6.90;;
84834;SDS011;75078;42.636;23.198;2024-02-28T07:00:45;15.38;;;8.38;;
84834;SDS011;75078;42.636;23.198;2024-02-28T07:03:10;13.32;;;7.78;;
84834;SDS011;75078;42.636;23.198;2024-02-28T07:05:36;19.27;;;7.82;;
84834;SDS011;75078;42.636;23.198;2024-02-28T07:08:01;15.55;;;8.63;;
84834;SDS011;75078;42.636;23.198;2024-02-28T07:10:27;13.90;;;8.65;;
84834;SDS011;75078;42.636;23.198;2024-02-28T07:12:52;14.85;;;8.45;;
84834;SDS011;75078;42.636;23.198;2024-02-28T07:15:17;20.05;;;9.23;;
84834;SDS011;75078;42.636;23.198;2024-02-28T07:17:45;14.82;;;7.97;;
84834;SDS011;75078;42.636;23.198;2024-02-28T07:20:11;18.92;;;10.45;;
84834;SDS011;75078;42.636;23.198;2024-02-28T07:22:37;42.13;;;16.45;;
84834;SDS011;75078;42.636;23.198;2024-02-28T07:25:02;45.08;;;16.77;;
84834;SDS011;75078;42.636;23.198;2024-02-28T07:27:29;22.95;;;9.45;;
84834;SDS011;75078;42.636;23.198;2024-02-28T07:29:55;19.20;;;9.23;;
84834;SDS011;75078;42.636;23.198;2024-02-28T07:32:20;17.45;;;9.00;;
84834;SDS011;75078;42.636;23.198;2024-02-28T07:34:46;16.25;;;9.45;;
84834;SDS011;75078;42.636;23.198;2024-02-28T07:37:11;16.10;;;8.82;;
84834;SDS011;75078;42.636;23.198;2024-02-28T07:39:37;20.27;;;10.57;;
84834;SDS011;75078;42.636;23.198;2024-02-28T07:42:02;18.52;;;10.27;;
84834;SDS011;75078;42.636;23.198;2024-02-28T07:44:28;18.15;;;9.73;;
84834;SDS011;75078;42.636;23.198;2024-02-28T07:46:55;22.23;;;11.50;;
84834;SDS011;75078;42.636;23.198;2024-02-28T07:49:22;19.88;;;10.50;;
84834;SDS011;75078;42.636;23.198;2024-02-28T07:51:47;21.92;;;10.35;;
84834;SDS011;75078;42.636;23.198;2024-02-28T07:54:13;23.48;;;11.35;;
84834;SDS011;75078;42.636;23.198;2024-02-28T07:56:38;26.98;;;12.52;;
84834;SDS011;75078;42.636;23.198;2024-02-28T07:59:03;23.70;;;12.07;;
84834;SDS011;75078;42.636;23.198;2024-02-28T08:01:29;21.50;;;11.60;;
84834;SDS011;75078;42.636;23.198;2024-02-28T08:03:55;24.05;;;11.45;;
84834;SDS011;75078;42.636;23.198;2024-02-28T08:06:21;19.13;;;11.07;;
84834;SDS011;75078;42.636;23.198;2024-02-28T08:08:47;18.98;;;11.18;;
84834;SDS011;75078;42.636;23.198;2024-02-28T08:11:12;21.55;;;12.18;;
84834;SDS011;75078;42.636;23.198;2024-02-28T08:13:38;21.33;;;12.55;;
84834;SDS011;75078;42.636;23.198;2024-02-28T08:16:03;18.08;;;11.23;;
84834;SDS011;75078;42.636;23.198;2024-02-28T08:18:29;20.80;;;11.48;;
84834;SDS011;75078;42.636;23.198;2024-02-28T08:20:54;21.27;;;11.50;;
84834;SDS011;75078;42.636;23.198;2024-02-28T08:23:22;18.40;;;10.55;;
84834;SDS011;75078;42.636;23.198;2024-02-28T08:25:48;22.63;;;11.48;;
84834;SDS011;75078;42.636;23.198;2024-02-28T08:28:13;18.70;;;11.13;;
84834;SDS011;75078;42.636;23.198;2024-02-28T08:30:39;19.35;;;11.27;;
84834;SDS011;75078;42.636;23.198;2024-02-28T08:33:05;19.35;;;11.27;;
84834;SDS011;75078;42.636;23.198;2024-02-28T08:35:31;23.48;;;11.43;;
84834;SDS011;75078;42.636;23.198;2024-02-28T08:37:57;22.20;;;10.90;;
84834;SDS011;75078;42.636;23.198;2024-02-28T08:40:22;21.13;;;11.23;;
84834;SDS011;75078;42.636;23.198;2024-02-28T08:42:47;17.60;;;9.85;;
84834;SDS011;75078;42.636;23.198;2024-02-28T08:45:14;17.85;;;11.40;;
84834;SDS011;75078;42.636;23.198;2024-02-28T08:47:40;21.17;;;10.68;;
84834;SDS011;75078;42.636;23.198;2024-02-28T08:50:06;21.08;;;11.80;;
84834;SDS011;75078;42.636;23.198;2024-02-28T08:52:32;22.77;;;11.65;;
84834;SDS011;75078;42.636;23.198;2024-02-28T08:54:58;23.20;;;13.05;;
84834;SDS011;75078;42.636;23.198;2024-02-28T08:57:23;27.70;;;12.15;;
84834;SDS011;75078;42.636;23.198;2024-02-28T08:59:49;18.67;;;12.00;;
84834;SDS011;75078;42.636;23.198;2024-02-28T09:02:15;21.33;;;11.13;;
84834;SDS011;75078;42.636;23.198;2024-02-28T09:04:40;19.85;;;10.10;;
84834;SDS011;75078;42.636;23.198;2024-02-28T09:07:06;20.00;;;10.98;;
84834;SDS011;75078;42.636;23.198;2024-02-28T09:09:31;17.15;;;10.23;;
84834;SDS011;75078;42.636;23.198;2024-02-28T09:12:01;19.30;;;11.35;;
84834;SDS011;75078;42.636;23.198;2024-02-28T09:14:28;21.55;;;11.65;;
84834;SDS011;75078;42.636;23.198;2024-02-28T09:16:53;15.88;;;9.60;;
84834;SDS011;75078;42.636;23.198;2024-02-28T09:19:21;22.80;;;10.93;;
84834;SDS011;75078;42.636;23.198;2024-02-28T09:21:46;19.48;;;11.25;;
84834;SDS011;75078;42.636;23.198;2024-02-28T09:24:13;22.15;;;10.25;;
84834;SDS011;75078;42.636;23.198;2024-02-28T09:26:38;16.75;;;9.70;;
84834;SDS011;75078;42.636;23.198;2024-02-28T09:29:04;19.02;;;9.85;;
84834;SDS011;75078;42.636;23.198;2024-02-28T09:31:29;20.52;;;10.55;;
84834;SDS011;75078;42.636;23.198;2024-02-28T09:33:55;16.83;;;10.00;;
84834;SDS011;75078;42.636;23.198;2024-02-28T09:36:23;18.90;;;9.73;;
84834;SDS011;75078;42.636;23.198;2024-02-28T09:38:48;19.08;;;11.27;;
84834;SDS011;75078;42.636;23.198;2024-02-28T09:41:17;23.05;;;12.57;;
84834;SDS011;75078;42.636;23.198;2024-02-28T09:43:42;15.23;;;10.45;;
84834;SDS011;75078;42.636;23.198;2024-02-28T09:46:09;22.25;;;10.80;;
84834;SDS011;75078;42.636;23.198;2024-02-28T09:48:38;24.35;;;12.90;;
84834;SDS011;75078;42.636;23.198;2024-02-28T09:51:05;19.10;;;11.15;;
84834;SDS011;75078;42.636;23.198;2024-02-28T09:53:30;22.42;;;10.82;;
84834;SDS011;75078;42.636;23.198;2024-02-28T09:55:56;21.85;;;11.13;;
84834;SDS011;75078;42.636;23.198;2024-02-28T09:58:21;21.58;;;11.80;;
84834;SDS011;75078;42.636;23.198;2024-02-28T10:00:48;14.48;;;9.35;;
84834;SDS011;75078;42.636;23.198;2024-02-28T10:03:15;17.67;;;9.55;;
84834;SDS011;75078;42.636;23.198;2024-02-28T10:05:43;12.15;;;5.63;;
84834;SDS011;75078;42.636;23.198;2024-02-28T10:08:09;17.13;;;9.02;;
84834;SDS011;75078;42.636;23.198;2024-02-28T10:10:38;20.90;;;9.10;;
84834;SDS011;75078;42.636;23.198;2024-02-28T10:13:09;4.93;;;2.85;;
84834;SDS011;75078;42.636;23.198;2024-02-28T10:15:34;8.15;;;2.60;;
84834;SDS011;75078;42.636;23.198;2024-02-28T10:18:00;4.35;;;2.33;;
84834;SDS011;75078;42.636;23.198;2024-02-28T10:20:25;4.38;;;2.28;;
84834;SDS011;75078;42.636;23.198;2024-02-28T10:22:52;4.60;;;2.50;;
84834;SDS011;75078;42.636;23.198;2024-02-28T10:25:18;14.93;;;9.88;;
84834;SDS011;75078;42.636;23.198;2024-02-28T10:27:43;18.00;;;11.68;;
84834;SDS011;75078;42.636;23.198;2024-02-28T10:30:09;21.30;;;9.80;;
84834;SDS011;75078;42.636;23.198;2024-02-28T10:32:35;16.85;;;9.02;;
84834;SDS011;75078;42.636;23.198;2024-02-28T10:35:01;18.42;;;9.85;;
84834;SDS011;75078;42.636;23.198;2024-02-28T10:37:30;17.67;;;9.57;;
84834;SDS011;75078;42.636;23.198;2024-02-28T10:39:57;19.13;;;9.35;;
84834;SDS011;75078;42.636;23.198;2024-02-28T10:42:25;17.50;;;8.13;;
84834;SDS011;75078;42.636;23.198;2024-02-28T10:44:52;14.65;;;9.02;;
84834;SDS011;75078;42.636;23.198;2024-02-28T10:47:18;18.85;;;8.25;;
84834;SDS011;75078;42.636;23.198;2024-02-28T10:49:44;10.45;;;6.32;;
84834;SDS011;75078;42.636;23.198;2024-02-28T10:52:10;3.22;;;1.67;;
84834;SDS011;75078;42.636;23.198;2024-02-28T10:54:38;5.18;;;2.47;;
84834;SDS011;75078;42.636;23.198;2024-02-28T10:57:07;8.38;;;2.72;;
84834;SDS011;75078;42.636;23.198;2024-02-28T10:59:33;4.38;;;1.90;;
84834;SDS011;75078;42.636;23.198;2024-02-28T11:04:28;3.15;;;1.80;;
84834;SDS011;75078;42.636;23.198;2024-02-28T11:06:54;6.85;;;2.25;;
84834;SDS011;75078;42.636;23.198;2024-02-28T11:09:21;4.35;;;2.10;;
84834;SDS011;75078;42.636;23.198;2024-02-28T11:11:48;1.73;;;1.63;;
84834;SDS011;75078;42.636;23.198;2024-02-28T11:14:15;3.60;;;2.40;;
84834;SDS011;75078;42.636;23.198;2024-02-28T11:16:41;5.35;;;2.03;;
84834;SDS011;75078;42.636;23.198;2024-02-28T11:19:11;3.92;;;1.70;;
84834;SDS011;75078;42.636;23.198;2024-02-28T11:21:45;5.45;;;2.03;;
84834;SDS011;75078;42.636;23.198;2024-02-28T11:24:12;4.50;;;3.28;;
84834;SDS011;75078;42.636;23.198;2024-02-28T11:26:38;5.55;;;2.03;;
84834;SDS011;75078;42.636;23.198;2024-02-28T11:29:03;3.67;;;1.98;;
84834;SDS011;75078;42.636;23.198;2024-02-28T11:31:29;4.05;;;1.73;;
84834;SDS011;75078;42.636;23.198;2024-02-28T11:33:54;3.97;;;2.00;;
84834;SDS011;75078;42.636;23.198;2024-02-28T11:36:19;5.90;;;2.50;;
84834;SDS011;75078;42.636;23.198;2024-02-28T11:38:45;7.10;;;2.22;;
84834;SDS011;75078;42.636;23.198;2024-02-28T11:41:11;4.70;;;2.05;;
84834;SDS011;75078;42.636;23.198;2024-02-28T11:43:36;3.58;;;1.52;;
84834;SDS011;75078;42.636;23.198;2024-02-28T11:46:02;6.18;;;1.67;;
84834;SDS011;75078;42.636;23.198;2024-02-28T11:48:33;5.45;;;2.42;;
84834;SDS011;75078;42.636;23.198;2024-02-28T11:50:59;4.57;;;1.70;;
84834;SDS011;75078;42.636;23.198;2024-02-28T11:53:24;4.13;;;2.00;;
84834;SDS011;75078;42.636;23.198;2024-02-28T11:55:52;3.33;;;1.45;;
84834;SDS011;75078;42.636;23.198;2024-02-28T11:58:17;3.63;;;1.65;;
84834;SDS011;75078;42.636;23.198;2024-02-28T12:00:49;1.88;;;1.60;;
84834;SDS011;75078;42.636;23.198;2024-02-28T12:03:19;6.13;;;3.90;;
84834;SDS011;75078;42.636;23.198;2024-02-28T12:05:48;7.70;;;5.68;;
84834;SDS011;75078;42.636;23.198;2024-02-28T12:08:14;8.65;;;6.05;;
84834;SDS011;75078;42.636;23.198;2024-02-28T12:10:40;8.80;;;4.82;;
84834;SDS011;75078;42.636;23.198;2024-02-28T12:13:05;6.90;;;4.43;;
84834;SDS011;75078;42.636;23.198;2024-02-28T12:15:32;8.77;;;4.10;;
84834;SDS011;75078;42.636;23.198;2024-02-28T12:17:58;6.05;;;3.55;;
84834;SDS011;75078;42.636;23.198;2024-02-28T12:20:23;7.10;;;3.30;;
84834;SDS011;75078;42.636;23.198;2024-02-28T12:22:49;6.90;;;4.40;;
84834;SDS011;75078;42.636;23.198;2024-02-28T12:25:14;7.70;;;3.88;;
84834;SDS011;75078;42.636;23.198;2024-02-28T12:27:40;6.82;;;4.10;;
84834;SDS011;75078;42.636;23.198;2024-02-28T12:30:05;11.43;;;4.78;;
84834;SDS011;75078;42.636;23.198;2024-02-28T12:32:31;6.20;;;3.95;;
84834;SDS011;75078;42.636;23.198;2024-02-28T12:34:56;10.68;;;4.97;;
84834;SDS011;75078;42.636;23.198;2024-02-28T12:37:22;8.73;;;4.97;;
84834;SDS011;75078;42.636;23.198;2024-02-28T12:39:47;5.55;;;4.00;;
84834;SDS011;75078;42.636;23.198;2024-02-28T12:42:12;7.45;;;3.85;;
84834;SDS011;75078;42.636;23.198;2024-02-28T12:44:38;5.70;;;4.00;;
84834;SDS011;75078;42.636;23.198;2024-02-28T12:47:05;7.82;;;4.22;;
84834;SDS011;75078;42.636;23.198;2024-02-28T12:49:31;6.43;;;4.13;;
84834;SDS011;75078;42.636;23.198;2024-02-28T12:51:56;9.10;;;4.63;;
84834;SDS011;75078;42.636;23.198;2024-02-28T12:54:22;8.68;;;6.28;;
84834;SDS011;75078;42.636;23.198;2024-02-28T12:56:47;6.78;;;4.55;;
84834;SDS011;75078;42.636;23.198;2024-02-28T12:59:13;8.48;;;4.57;;
84834;SDS011;75078;42.636;23.198;2024-02-28T13:01:38;6.00;;;3.90;;
84834;SDS011;75078;42.636;23.198;2024-02-28T13:04:04;9.20;;;4.55;;
84834;SDS011;75078;42.636;23.198;2024-02-28T13:06:31;5.80;;;4.10;;
84834;SDS011;75078;42.636;23.198;2024-02-28T13:08:57;7.10;;;4.72;;
84834;SDS011;75078;42.636;23.198;2024-02-28T13:11:23;7.10;;;4.07;;
84834;SDS011;75078;42.636;23.198;2024-02-28T13:13:49;7.82;;;3.95;;
84834;SDS011;75078;42.636;23.198;2024-02-28T13:16:16;8.15;;;3.78;;
84834;SDS011;75078;42.636;23.198;2024-02-28T13:18:45;9.52;;;4.10;;
84834;SDS011;75078;42.636;23.198;2024-02-28T13:21:11;5.20;;;4.40;;
84834;SDS011;75078;42.636;23.198;2024-02-28T13:23:37;7.07;;;4.75;;
84834;SDS011;75078;42.636;23.198;2024-02-28T13:26:03;7.75;;;4.13;;
84834;SDS011;75078;42.636;23.198;2024-02-28T13:28:29;7.35;;;4.40;;
84834;SDS011;75078;42.636;23.198;2024-02-28T13:30:58;6.93;;;5.03;;
84834;SDS011;75078;42.636;23.198;2024-02-28T13:33:24;8.10;;;4.50;;
84834;SDS011;75078;42.636;23.198;2024-02-28T13:35:50;8.43;;;5.00;;
84834;SDS011;75078;42.636;23.198;2024-02-28T13:38:16;9.85;;;5.43;;
84834;SDS011;75078;42.636;23.198;2024-02-28T13:40:42;7.63;;;5.32;;
84834;SDS011;75078;42.636;23.198;2024-02-28T13:43:09;8.43;;;6.15;;
84834;SDS011;75078;42.636;23.198;2024-02-28T13:45:35;10.27;;;6.90;;
84834;SDS011;75078;42.636;23.198;2024-02-28T13:48:00;9.68;;;5.28;;
84834;SDS011;75078;42.636;23.198;2024-02-28T13:50:26;6.82;;;4.70;;
84834;SDS011;75078;42.636;23.198;2024-02-28T13:52:56;9.48;;;5.75;;
84834;SDS011;75078;42.636;23.198;2024-02-28T13:55:22;8.52;;;6.18;;
84834;SDS011;75078;42.636;23.198;2024-02-28T13:57:47;8.73;;;5.68;;
84834;SDS011;75078;42.636;23.198;2024-02-28T14:00:13;7.22;;;5.63;;
84834;SDS011;75078;42.636;23.198;2024-02-28T14:02:39;12.38;;;6.55;;
84834;SDS011;75078;42.636;23.198;2024-02-28T14:05:05;9.63;;;6.72;;
84834;SDS011;75078;42.636;23.198;2024-02-28T14:07:32;7.78;;;5.72;;
84834;SDS011;75078;42.636;23.198;2024-02-28T14:09:58;10.23;;;5.50;;
84834;SDS011;75078;42.636;23.198;2024-02-28T14:12:23;9.80;;;5.63;;
84834;SDS011;75078;42.636;23.198;2024-02-28T14:14:49;10.52;;;5.85;;